createdAt,value
2022-12-23T00:01:07.654Z,10.65
2022-12-23T00:03:34.871Z,11.38
2022-12-23T00:06:01.898Z,11.05
2022-12-23T00:08:28.802Z,11.38
2022-12-23T00:10:55.707Z,11.02
2022-12-23T00:13:22.907Z,10.80
2022-12-23T00:15:49.830Z,11.45
2022-12-23T00:18:16.743Z,11.05
2022-12-23T00:20:43.664Z,11.20
2022-12-23T00:23:10.576Z,11.30
2022-12-23T00:25:37.514Z,11.27
2022-12-23T00:28:04.411Z,10.75
2022-12-23T00:30:31.350Z,11.43
2022-12-23T00:32:58.277Z,11.60
2022-12-23T00:35:25.208Z,11.95
2022-12-23T00:37:52.161Z,11.25
2022-12-23T00:40:19.119Z,11.98
2022-12-23T00:42:46.117Z,11.35
2022-12-23T00:45:13.018Z,11.55
2022-12-23T00:47:39.967Z,12.40
2022-12-23T00:50:06.849Z,11.30
2022-12-23T00:52:33.753Z,11.20
2022-12-23T00:55:00.656Z,12.05
2022-12-23T00:57:27.584Z,11.82
2022-12-23T00:59:54.488Z,11.80
2022-12-23T01:02:21.528Z,11.23
2022-12-23T01:04:48.577Z,12.02
2022-12-23T01:07:15.585Z,11.90
2022-12-23T01:09:42.502Z,11.38
2022-12-23T01:12:09.441Z,12.20
2022-12-23T01:14:43.601Z,12.63
2022-12-23T01:17:10.564Z,12.80
2022-12-23T01:19:38.523Z,12.52
2022-12-23T01:22:05.805Z,12.68
2022-12-23T01:24:32.729Z,12.57
2022-12-23T01:26:59.665Z,12.45
2022-12-23T01:29:26.578Z,12.10
2022-12-23T01:31:53.610Z,12.60
2022-12-23T01:34:20.545Z,12.32
2022-12-23T01:36:47.460Z,14.30
2022-12-23T01:39:14.548Z,13.45
2022-12-23T01:41:41.456Z,13.05
2022-12-23T01:44:08.338Z,12.48
2022-12-23T01:46:35.277Z,12.15
2022-12-23T01:49:02.184Z,13.20
2022-12-23T01:51:29.127Z,12.93
2022-12-23T01:53:56.031Z,13.43
2022-12-23T01:56:23.136Z,13.98
2022-12-23T01:58:50.061Z,13.63
2022-12-23T02:01:17.094Z,13.02
2022-12-23T02:03:44.334Z,13.07
2022-12-23T02:06:11.477Z,13.70
2022-12-23T02:08:38.414Z,14.30
2022-12-23T02:11:05.554Z,13.98
2022-12-23T02:13:32.463Z,13.32
2022-12-23T02:15:59.384Z,12.77
2022-12-23T02:18:26.269Z,14.88
2022-12-23T02:20:53.151Z,13.52
2022-12-23T02:23:20.061Z,12.98
2022-12-23T02:25:47.015Z,13.73
2022-12-23T02:28:13.944Z,13.85
2022-12-23T02:30:40.921Z,13.40
2022-12-23T02:33:07.880Z,14.05
2022-12-23T02:35:34.809Z,13.10
2022-12-23T02:38:02.956Z,13.65
2022-12-23T02:40:29.894Z,13.23
2022-12-23T02:42:56.802Z,13.60
2022-12-23T02:45:23.705Z,13.43
2022-12-23T02:47:50.613Z,13.88
2022-12-23T02:50:18.574Z,13.63
2022-12-23T02:52:45.486Z,14.65
2022-12-23T02:55:12.449Z,14.50
2022-12-23T02:57:39.347Z,14.32
2022-12-23T03:00:06.257Z,14.30
2022-12-23T03:02:33.284Z,13.93
2022-12-23T03:05:01.103Z,14.40
2022-12-23T03:07:28.294Z,13.50
2022-12-23T03:09:55.199Z,13.85
2022-12-23T03:12:22.113Z,14.30
2022-12-23T03:14:49.013Z,15.40
2022-12-23T03:17:15.945Z,14.30
2022-12-23T03:19:42.837Z,14.90
2022-12-23T03:22:14.083Z,15.20
2022-12-23T03:24:40.992Z,15.02
2022-12-23T03:27:07.931Z,16.52
2022-12-23T03:29:34.932Z,15.02
2022-12-23T03:32:01.871Z,15.57
2022-12-23T03:34:28.788Z,16.30
2022-12-23T03:36:55.693Z,14.82
2022-12-23T03:39:22.598Z,16.30
2022-12-23T03:41:49.527Z,15.30
2022-12-23T03:44:16.429Z,16.05
2022-12-23T03:46:43.471Z,15.45
2022-12-23T03:49:10.401Z,16.15
2022-12-23T03:51:37.315Z,16.30
2022-12-23T03:54:04.211Z,15.70
2022-12-23T03:56:31.180Z,17.00
2022-12-23T03:58:58.105Z,17.30
2022-12-23T04:01:25.189Z,16.50
2022-12-23T04:03:52.148Z,16.70
2022-12-23T04:06:19.070Z,16.35
2022-12-23T04:08:45.993Z,16.70
2022-12-23T04:11:12.992Z,16.88
2022-12-23T04:13:39.911Z,16.17
2022-12-23T04:16:06.857Z,17.48
2022-12-23T04:18:33.821Z,17.10
2022-12-23T04:21:01.766Z,18.67
2022-12-23T04:23:28.678Z,16.65
2022-12-23T04:25:55.560Z,16.38
2022-12-23T04:28:22.480Z,17.00
2022-12-23T04:30:49.423Z,16.25
2022-12-23T04:33:16.339Z,16.90
2022-12-23T04:35:44.324Z,17.17
2022-12-23T04:38:11.261Z,18.17
2022-12-23T04:40:38.198Z,17.05
2022-12-23T04:43:05.151Z,17.63
2022-12-23T04:45:32.060Z,18.55
2022-12-23T04:47:58.967Z,17.45
2022-12-23T04:50:25.877Z,17.60
2022-12-23T04:52:52.827Z,17.48
2022-12-23T04:55:19.797Z,18.48
2022-12-23T04:57:46.726Z,18.50
2022-12-23T05:00:13.648Z,18.10
2022-12-23T05:02:40.655Z,18.92
2022-12-23T05:05:07.632Z,18.15
2022-12-23T05:07:34.541Z,20.27
2022-12-23T05:10:01.505Z,20.27
2022-12-23T05:12:28.509Z,18.95
2022-12-23T05:14:55.648Z,19.90
2022-12-23T05:17:22.591Z,18.98
2022-12-23T05:19:49.515Z,18.30
2022-12-23T05:22:16.436Z,19.17
2022-12-23T05:24:43.360Z,19.23
2022-12-23T05:27:10.312Z,19.08
2022-12-23T05:29:37.231Z,20.25
2022-12-23T05:32:04.271Z,19.67
2022-12-23T05:34:31.416Z,21.33
2022-12-23T05:36:58.347Z,20.08
2022-12-23T05:39:25.317Z,20.55
2022-12-23T05:41:52.268Z,20.42
2022-12-23T05:44:19.208Z,20.85
2022-12-23T05:46:46.144Z,19.55
2022-12-23T05:49:13.090Z,20.23
2022-12-23T05:51:40.016Z,20.42
2022-12-23T05:54:07.409Z,19.55
2022-12-23T05:56:34.353Z,20.08
2022-12-23T05:59:01.275Z,21.23
2022-12-23T06:01:28.289Z,20.95
2022-12-23T06:03:55.428Z,20.63
2022-12-23T06:06:22.453Z,22.38
2022-12-23T06:08:52.040Z,20.73
2022-12-23T06:11:22.769Z,21.42
2022-12-23T06:13:49.703Z,19.58
2022-12-23T06:16:16.611Z,23.00
2022-12-23T06:18:43.634Z,22.77
2022-12-23T06:21:10.590Z,22.35
2022-12-23T06:23:37.536Z,21.48
2022-12-23T06:26:04.571Z,20.67
2022-12-23T06:28:31.505Z,21.50
2022-12-23T06:30:58.475Z,21.70
2022-12-23T06:33:25.424Z,21.10
2022-12-23T06:35:52.377Z,21.75
2022-12-23T06:38:19.297Z,20.85
2022-12-23T06:40:46.289Z,20.73
2022-12-23T06:43:13.264Z,22.25
2022-12-23T06:45:40.268Z,21.48
2022-12-23T06:48:07.210Z,19.58
2022-12-23T06:50:34.124Z,21.48
2022-12-23T06:53:01.060Z,20.38
2022-12-23T06:55:28.035Z,20.80
2022-12-23T06:57:54.940Z,20.23
2022-12-23T07:00:21.949Z,21.73
2022-12-23T07:02:49.008Z,21.15
2022-12-23T07:05:16.778Z,21.55
2022-12-23T07:07:43.842Z,20.80
2022-12-23T07:10:10.902Z,21.30
2022-12-23T07:12:39.200Z,20.25
2022-12-23T07:15:12.229Z,20.73
2022-12-23T07:17:39.338Z,20.13
2022-12-23T07:20:06.459Z,19.33
2022-12-23T07:22:33.583Z,20.65
2022-12-23T07:25:06.521Z,19.17
2022-12-23T07:27:33.510Z,20.52
2022-12-23T07:30:00.592Z,18.88
2022-12-23T07:32:27.571Z,22.17
2022-12-23T07:34:54.519Z,20.52
2022-12-23T07:37:21.487Z,21.02
2022-12-23T07:39:48.394Z,19.88
2022-12-23T07:45:02.358Z,21.80
2022-12-23T07:47:29.268Z,21.48
2022-12-23T07:49:56.182Z,22.50
2022-12-23T07:52:23.115Z,20.98
2022-12-23T07:54:50.064Z,23.23
2022-12-23T07:57:16.966Z,21.65
2022-12-23T07:59:43.908Z,20.60
2022-12-23T08:02:14.074Z,22.80
2022-12-23T08:04:46.001Z,22.10
2022-12-23T08:07:13.459Z,21.75
2022-12-23T08:09:40.402Z,22.52
2022-12-23T08:12:07.343Z,20.15
2022-12-23T08:14:40.132Z,21.13
2022-12-23T08:17:07.057Z,21.17
2022-12-23T08:19:34.094Z,21.27
2022-12-23T08:22:01.031Z,21.92
2022-12-23T08:24:27.950Z,20.30
2022-12-23T08:26:54.882Z,20.95
2022-12-23T08:29:22.365Z,20.73
2022-12-23T08:31:49.265Z,20.50
2022-12-23T08:34:17.239Z,20.83
2022-12-23T08:36:44.194Z,20.38
2022-12-23T08:39:11.094Z,20.08
2022-12-23T08:41:38.027Z,18.38
2022-12-23T08:44:04.954Z,19.77
2022-12-23T08:46:31.936Z,18.75
2022-12-23T08:48:59.309Z,11.18
2022-12-23T08:51:26.362Z,9.65
2022-12-23T08:53:59.551Z,10.93
2022-12-23T08:56:28.384Z,10.40
2022-12-23T08:58:55.346Z,17.63
2022-12-23T09:01:22.320Z,18.13
2022-12-23T09:03:49.273Z,19.50
2022-12-23T09:06:16.367Z,19.92
2022-12-23T09:08:43.255Z,19.17
2022-12-23T09:11:10.213Z,19.48
2022-12-23T09:13:37.228Z,19.50
2022-12-23T09:16:04.254Z,18.38
2022-12-23T09:18:31.293Z,19.92
2022-12-23T09:20:58.189Z,18.65
2022-12-23T09:23:25.093Z,18.15
2022-12-23T09:25:53.061Z,18.00
2022-12-23T09:28:22.935Z,18.02
2022-12-23T09:30:50.108Z,18.02
2022-12-23T09:33:17.048Z,16.55
2022-12-23T09:35:44.020Z,16.98
2022-12-23T09:38:10.949Z,16.23
2022-12-23T09:40:37.885Z,15.73
2022-12-23T09:43:04.873Z,16.52
2022-12-23T09:45:35.627Z,16.05
2022-12-23T09:48:07.154Z,15.88
2022-12-23T09:50:34.079Z,16.02
2022-12-23T09:53:00.979Z,16.05
2022-12-23T09:55:27.887Z,15.63
2022-12-23T09:57:54.779Z,16.05
2022-12-23T10:00:21.694Z,15.45
2022-12-23T10:02:48.784Z,14.25
2022-12-23T10:05:15.830Z,16.08
2022-12-23T10:07:42.731Z,14.77
2022-12-23T10:10:09.607Z,15.18
2022-12-23T10:12:40.111Z,14.98
2022-12-23T10:15:07.686Z,15.02
2022-12-23T10:17:34.608Z,14.43
2022-12-23T10:20:01.553Z,14.38
2022-12-23T10:22:28.456Z,15.43
2022-12-23T10:24:55.368Z,15.10
2022-12-23T10:27:22.282Z,15.02
2022-12-23T10:29:49.220Z,15.02
2022-12-23T10:32:16.244Z,14.35
2022-12-23T10:34:43.190Z,14.55
2022-12-23T10:37:11.496Z,14.18
2022-12-23T10:39:38.442Z,14.05
2022-12-23T10:42:05.344Z,14.98
2022-12-23T10:44:32.239Z,16.35
2022-12-23T10:46:59.197Z,15.00
2022-12-23T10:49:31.309Z,14.82
2022-12-23T10:51:58.214Z,15.20
2022-12-23T10:54:25.231Z,14.65
2022-12-23T10:56:52.133Z,15.13
2022-12-23T10:59:19.096Z,15.57
2022-12-23T11:01:46.223Z,13.63
2022-12-23T11:04:13.328Z,13.38
2022-12-23T11:06:40.264Z,12.75
2022-12-23T11:09:08.128Z,13.85
2022-12-23T11:11:35.219Z,13.52
2022-12-23T11:14:02.266Z,13.38
2022-12-23T11:16:29.283Z,13.32
2022-12-23T11:18:56.219Z,13.95
2022-12-23T11:21:23.368Z,14.48
2022-12-23T11:23:50.271Z,13.45
2022-12-23T11:26:17.218Z,14.25
2022-12-23T11:28:44.179Z,12.90
2022-12-23T11:31:11.195Z,13.82
2022-12-23T11:33:38.125Z,13.75
2022-12-23T11:36:05.306Z,13.85
2022-12-23T11:38:32.207Z,13.77
2022-12-23T11:40:59.152Z,13.85
2022-12-23T11:43:26.085Z,14.07
2022-12-23T11:45:53.080Z,13.27
2022-12-23T11:48:20.021Z,12.63
2022-12-23T11:50:46.906Z,13.75
2022-12-23T11:53:13.811Z,13.13
2022-12-23T11:55:40.717Z,14.20
2022-12-23T11:58:08.134Z,13.32
2022-12-23T12:00:35.083Z,13.13
2022-12-23T12:03:02.102Z,12.25
2022-12-23T12:05:29.040Z,12.80
2022-12-23T12:07:55.991Z,12.50
2022-12-23T12:10:23.044Z,12.50
2022-12-23T12:12:52.980Z,12.50
2022-12-23T12:15:22.916Z,13.15
2022-12-23T12:17:49.917Z,12.02
2022-12-23T12:20:16.806Z,12.55
2022-12-23T12:22:43.743Z,13.50
2022-12-23T12:25:10.655Z,12.20
2022-12-23T12:27:37.578Z,12.57
2022-12-23T12:30:08.370Z,13.10
2022-12-23T12:32:35.747Z,12.88
2022-12-23T12:35:04.722Z,12.63
2022-12-23T12:37:31.617Z,12.73
2022-12-23T12:39:58.559Z,12.05
2022-12-23T12:42:25.493Z,14.02
2022-12-23T12:44:52.422Z,13.63
2022-12-23T12:47:51.987Z,13.30
2022-12-23T12:50:06.196Z,13.40
2022-12-23T12:52:33.136Z,12.18
2022-12-23T12:55:00.081Z,13.27
2022-12-23T12:57:27.067Z,13.25
2022-12-23T12:59:56.382Z,11.75
2022-12-23T13:02:25.542Z,13.15
2022-12-23T13:04:52.474Z,12.02
2022-12-23T13:07:19.478Z,12.63
2022-12-23T13:09:46.389Z,11.93
2022-12-23T13:12:13.321Z,11.23
2022-12-23T13:14:40.224Z,11.32
2022-12-23T13:17:07.244Z,12.15
2022-12-23T13:19:34.209Z,9.85
2022-12-23T13:22:01.324Z,10.70
2022-12-23T13:24:28.253Z,10.13
2022-12-23T13:26:55.194Z,10.00
2022-12-23T13:29:22.119Z,9.13
2022-12-23T13:31:49.028Z,8.70
2022-12-23T13:34:15.961Z,8.23
2022-12-23T13:36:42.980Z,8.30
2022-12-23T13:39:09.957Z,8.93
2022-12-23T13:41:36.912Z,8.82
2022-12-23T13:44:03.827Z,9.35
2022-12-23T13:46:30.753Z,7.85
2022-12-23T13:48:57.707Z,8.57
2022-12-23T13:51:24.595Z,8.27
2022-12-23T13:53:51.492Z,7.80
2022-12-23T13:56:19.484Z,7.32
2022-12-23T13:58:46.421Z,6.57
2022-12-23T14:01:13.326Z,6.78
2022-12-23T14:03:40.254Z,6.82
2022-12-23T14:06:07.142Z,5.60
2022-12-23T14:08:34.060Z,6.35
2022-12-23T14:11:00.956Z,5.90
2022-12-23T14:13:28.976Z,6.25
2022-12-23T14:15:55.919Z,5.68
2022-12-23T14:18:22.937Z,5.85
2022-12-23T14:20:49.840Z,5.15
2022-12-23T14:23:17.091Z,5.60
2022-12-23T14:25:44.004Z,5.40
2022-12-23T14:28:10.915Z,4.80
2022-12-23T14:30:37.816Z,4.90
2022-12-23T14:33:04.746Z,5.30
2022-12-23T14:35:35.485Z,5.68
2022-12-23T14:38:07.165Z,6.13
2022-12-23T14:40:34.034Z,6.20
2022-12-23T14:43:01.000Z,6.63
2022-12-23T14:45:27.914Z,7.68
2022-12-23T14:47:54.833Z,9.43
2022-12-23T14:50:22.162Z,9.73
2022-12-23T14:52:49.108Z,11.23
2022-12-23T14:55:30.679Z,10.55
2022-12-23T14:58:00.702Z,10.90
2022-12-23T15:00:31.309Z,10.48
2022-12-23T15:02:58.370Z,10.10
2022-12-23T15:05:25.387Z,10.07
2022-12-23T15:07:52.323Z,10.18
2022-12-23T15:10:19.276Z,9.60
2022-12-23T15:12:46.224Z,9.80
2022-12-23T15:15:13.285Z,10.27
2022-12-23T15:17:40.216Z,11.50
2022-12-23T15:20:07.165Z,10.85
2022-12-23T15:22:34.083Z,10.23
2022-12-23T15:25:01.034Z,10.05
2022-12-23T15:27:29.740Z,10.10
2022-12-23T15:29:57.331Z,9.93
2022-12-23T15:32:24.294Z,9.65
2022-12-23T15:34:51.255Z,10.80
2022-12-23T15:37:18.159Z,11.93
2022-12-23T15:39:45.119Z,10.52
2022-12-23T15:42:12.086Z,11.20
2022-12-23T15:44:39.094Z,11.75
2022-12-23T15:47:06.033Z,11.80
2022-12-23T15:49:32.996Z,11.65
2022-12-23T15:52:09.760Z,11.27
2022-12-23T15:54:39.099Z,13.07
2022-12-23T15:57:05.992Z,12.60
2022-12-23T15:59:32.935Z,13.02
2022-12-23T16:01:59.918Z,12.63
2022-12-23T16:04:27.005Z,14.07
2022-12-23T16:06:53.973Z,15.75
2022-12-23T16:09:21.417Z,14.75
2022-12-23T16:11:48.326Z,16.60
2022-12-23T16:14:15.246Z,15.18
2022-12-23T16:16:42.277Z,16.85
2022-12-23T16:19:09.298Z,19.25
2022-12-23T16:21:36.190Z,18.90
2022-12-23T16:24:03.111Z,19.33
2022-12-23T16:26:30.055Z,17.55
2022-12-23T16:28:56.985Z,17.08
2022-12-23T16:31:23.941Z,17.20
2022-12-23T16:33:52.966Z,17.77
2022-12-23T16:36:19.907Z,18.15
2022-12-23T16:38:46.880Z,17.33
2022-12-23T16:41:13.811Z,18.13
2022-12-23T16:43:51.615Z,18.90
2022-12-23T16:46:19.631Z,17.45
2022-12-23T16:48:55.862Z,16.98
2022-12-23T16:56:59.178Z,25.05
2022-12-23T16:59:26.089Z,23.85
2022-12-23T17:01:55.543Z,20.45
2022-12-23T17:04:26.580Z,18.08
2022-12-23T17:06:53.469Z,16.75
2022-12-23T17:09:20.397Z,15.77
2022-12-23T17:11:47.296Z,16.00
2022-12-23T17:14:15.813Z,16.50
2022-12-23T17:16:43.010Z,16.55
2022-12-23T17:19:09.999Z,17.15
2022-12-23T17:21:36.910Z,16.20
2022-12-23T17:24:04.143Z,16.90
2022-12-23T17:26:31.051Z,17.88
2022-12-23T17:28:57.963Z,17.40
2022-12-23T17:31:27.165Z,18.35
2022-12-23T17:34:08.046Z,17.48
2022-12-23T17:36:35.062Z,18.98
2022-12-23T17:44:35.892Z,19.92
2022-12-23T17:47:02.802Z,17.75
2022-12-23T17:49:29.710Z,18.92
2022-12-23T17:57:33.848Z,14.95
2022-12-23T18:00:00.853Z,14.80
2022-12-23T18:02:27.853Z,13.50
2022-12-23T18:04:54.819Z,12.55
2022-12-23T18:07:21.801Z,12.95
2022-12-23T18:09:48.696Z,10.40
2022-12-23T18:12:19.003Z,8.93
2022-12-23T18:14:50.059Z,8.82
2022-12-23T18:17:16.993Z,7.28
2022-12-23T18:19:43.930Z,7.53
2022-12-23T18:22:10.844Z,7.45
2022-12-23T18:24:37.769Z,7.07
2022-12-23T18:27:04.679Z,6.65
2022-12-23T18:29:31.641Z,5.80
2022-12-23T18:31:58.587Z,5.70
2022-12-23T18:34:25.507Z,4.57
2022-12-23T18:36:52.517Z,4.32
2022-12-23T18:39:19.474Z,4.10
2022-12-23T18:41:46.371Z,4.30
2022-12-23T18:44:13.289Z,4.53
2022-12-23T18:46:40.440Z,3.78
2022-12-23T18:49:07.392Z,3.72
2022-12-23T18:51:34.304Z,3.55
2022-12-23T18:54:04.333Z,3.55
2022-12-23T18:56:31.272Z,3.15
2022-12-23T18:58:58.192Z,3.10
2022-12-23T19:01:25.170Z,3.60
2022-12-23T19:03:52.144Z,3.20
2022-12-23T19:06:19.048Z,2.60
2022-12-23T19:08:45.965Z,3.00
2022-12-23T19:11:12.867Z,3.58
2022-12-23T19:13:39.770Z,3.33
2022-12-23T19:16:06.755Z,2.63
2022-12-23T19:18:33.677Z,3.13
2022-12-23T19:21:00.631Z,3.92
2022-12-23T19:23:27.516Z,4.00
2022-12-23T19:25:55.536Z,3.35
2022-12-23T19:28:22.643Z,3.00
2022-12-23T19:30:49.884Z,3.20
2022-12-23T19:33:16.883Z,3.15
2022-12-23T19:35:43.790Z,3.03
2022-12-23T19:38:10.771Z,3.10
2022-12-23T19:40:37.699Z,3.08
2022-12-23T19:43:04.647Z,3.45
2022-12-23T19:45:31.609Z,3.92
2022-12-23T19:47:58.526Z,3.88
2022-12-23T19:50:25.438Z,4.82
2022-12-23T19:52:52.336Z,4.72
2022-12-23T19:55:19.271Z,3.83
2022-12-23T19:57:46.193Z,4.00
2022-12-23T20:00:13.095Z,3.20
2022-12-23T20:02:40.251Z,3.88
2022-12-23T20:05:07.190Z,3.80
2022-12-23T20:07:34.105Z,3.85
2022-12-23T20:10:00.994Z,3.13
2022-12-23T20:12:27.930Z,3.75
2022-12-23T20:14:54.851Z,3.53
2022-12-23T20:17:21.778Z,3.78
2022-12-23T20:19:48.685Z,3.58
2022-12-23T20:22:15.609Z,3.53
2022-12-23T20:25:06.726Z,3.75
2022-12-23T20:30:19.918Z,3.53
2022-12-23T20:33:00.682Z,3.30
2022-12-23T20:35:27.655Z,3.38
2022-12-23T20:37:54.587Z,3.55
2022-12-23T20:40:21.497Z,3.88
2022-12-23T20:42:48.437Z,4.00
2022-12-23T20:45:15.355Z,4.03
2022-12-23T20:47:42.276Z,3.92
2022-12-23T20:50:09.170Z,3.92
2022-12-23T20:52:36.107Z,3.58
2022-12-23T20:55:03.048Z,3.50
2022-12-23T20:57:29.967Z,5.00
2022-12-23T20:59:56.900Z,4.75
2022-12-23T21:02:23.809Z,4.35
2022-12-23T21:04:55.100Z,4.75
2022-12-23T21:07:22.040Z,5.57
2022-12-23T21:09:48.997Z,4.32
2022-12-23T21:12:15.915Z,4.90
2022-12-23T21:14:42.804Z,4.32
2022-12-23T21:17:09.710Z,4.72
2022-12-23T21:19:36.624Z,4.30
2022-12-23T21:22:03.571Z,4.28
2022-12-23T21:24:30.505Z,4.22
2022-12-23T21:26:57.518Z,3.90
2022-12-23T21:29:24.518Z,4.20
2022-12-23T21:31:51.530Z,3.80
2022-12-23T21:34:18.541Z,4.03
2022-12-23T21:36:45.564Z,4.20
2022-12-23T21:39:12.552Z,4.03
2022-12-23T21:41:39.531Z,4.25
2022-12-23T21:44:06.467Z,4.20
2022-12-23T21:46:33.654Z,5.13
2022-12-23T21:49:00.674Z,4.20
2022-12-23T21:51:31.793Z,4.38
2022-12-23T21:54:03.818Z,4.68
2022-12-23T21:56:30.748Z,5.00
2022-12-23T21:58:57.835Z,4.78
2022-12-23T22:01:24.840Z,4.82
2022-12-23T22:03:51.850Z,5.43
2022-12-23T22:06:18.798Z,5.53
2022-12-23T22:08:46.490Z,5.60
2022-12-23T22:11:13.397Z,6.85
2022-12-23T22:13:40.451Z,5.63
2022-12-23T22:16:07.512Z,6.05
2022-12-23T22:18:34.621Z,6.50
2022-12-23T22:21:01.621Z,6.90
2022-12-23T22:23:28.641Z,6.85
2022-12-23T22:25:55.560Z,5.93
2022-12-23T22:28:22.500Z,6.50
2022-12-23T22:30:49.420Z,6.90
2022-12-23T22:33:16.369Z,6.38
2022-12-23T22:35:43.337Z,7.22
2022-12-23T22:38:10.299Z,6.65
2022-12-23T22:40:37.217Z,6.80
2022-12-23T22:43:04.161Z,6.50
2022-12-23T22:45:31.075Z,5.95
2022-12-23T22:47:58.042Z,6.50
2022-12-23T22:50:24.952Z,5.63
2022-12-23T22:52:51.880Z,6.20
2022-12-23T22:55:18.845Z,5.53
2022-12-23T22:57:54.112Z,6.40
2022-12-23T23:00:21.088Z,5.72
2022-12-23T23:02:59.990Z,5.80
2022-12-23T23:05:32.960Z,5.93
2022-12-23T23:08:07.970Z,5.68
2022-12-23T23:13:28.226Z,6.57
2022-12-23T23:16:04.248Z,5.97
2022-12-23T23:21:12.623Z,6.13
2022-12-23T23:26:20.740Z,6.68
2022-12-23T23:28:51.551Z,6.05
2022-12-23T23:36:54.267Z,7.53
2022-12-23T23:39:30.948Z,7.38
2022-12-23T23:41:57.939Z,7.47
2022-12-23T23:44:26.497Z,7.40
2022-12-23T23:49:37.951Z,8.20
2022-12-23T23:52:05.006Z,7.30
2022-12-23T23:54:31.944Z,8.48
2022-12-23T23:56:58.863Z,7.53
2022-12-23T23:59:25.788Z,8.23
